Portada
METAR-TAF:

METAR-TAF

Aeroports :

Wittering, Anglaterra

latitud: 52-37N, longitud: 000-28W, altitud: 84 m

Observació

L'informe es va fer fa 1 hora i 18 minuts, a les 10:50 UTC
Vent 18 kt del Nord/Nord-Est
Temperatura 8°C
Humitat 71%
Pressió 1031 hPa
Visibilitat 10 km o més

METAR: EGXT 281050Z AUTO 03018KT 9999 BKN023/// BKN043/// 08/03 Q1031

Hora: 12:08 (12:08 UTC)


TAF: manca

Observacions i pronòstics meteorològics de més de 4000 aeroports (METAR i TAF).

Les estacions disponibles són els punts grocs i vermells al mapa.

Posi el ratolí al punt desitjat per veure el nom de l'estació.

Feu clic per veure les observacions i els pronòstics meteorològics.

Per canviar el mapa: feu clic els botons verds amb una creu de color negre per apropar; al botó verd amb un guió per allunyar la imatge; o en les fletxes verdes per a mapes adjacents.


METAR-TAF: